sensor_id;sensor_type;location;lat;lon;timestamp;temperature;humidity
75164;HTU21D;63746;45.402;37.922;2022-12-11T00:02:01;10.88;72.61
75164;HTU21D;63746;45.402;37.922;2022-12-11T00:04:27;10.89;72.65
75164;HTU21D;63746;45.402;37.922;2022-12-11T00:06:53;10.90;72.68
75164;HTU21D;63746;45.402;37.922;2022-12-11T00:09:20;10.90;72.67
75164;HTU21D;63746;45.402;37.922;2022-12-11T00:11:46;10.92;72.66
75164;HTU21D;63746;45.402;37.922;2022-12-11T00:14:13;10.92;72.67
75164;HTU21D;63746;45.402;37.922;2022-12-11T00:16:39;10.94;72.70
75164;HTU21D;63746;45.402;37.922;2022-12-11T00:19:05;10.97;72.67
75164;HTU21D;63746;45.402;37.922;2022-12-11T00:21:31;10.98;72.64
75164;HTU21D;63746;45.402;37.922;2022-12-11T00:23:57;10.98;72.60
75164;HTU21D;63746;45.402;37.922;2022-12-11T00:26:25;10.99;72.59
75164;HTU21D;63746;45.402;37.922;2022-12-11T00:28:53;11.01;72.59
75164;HTU21D;63746;45.402;37.922;2022-12-11T00:31:20;11.01;72.58
75164;HTU21D;63746;45.402;37.922;2022-12-11T00:33:47;11.01;72.54
75164;HTU21D;63746;45.402;37.922;2022-12-11T00:36:19;11.03;72.53
75164;HTU21D;63746;45.402;37.922;2022-12-11T00:38:45;11.02;72.55
75164;HTU21D;63746;45.402;37.922;2022-12-11T00:41:11;11.03;72.54
75164;HTU21D;63746;45.402;37.922;2022-12-11T00:43:37;11.04;72.51
75164;HTU21D;63746;45.402;37.922;2022-12-11T00:46:04;11.04;72.51
75164;HTU21D;63746;45.402;37.922;2022-12-11T00:48:30;11.05;72.53
75164;HTU21D;63746;45.402;37.922;2022-12-11T00:50:56;11.08;72.53
75164;HTU21D;63746;45.402;37.922;2022-12-11T00:53:22;11.08;72.51
75164;HTU21D;63746;45.402;37.922;2022-12-11T00:55:48;11.10;72.48
75164;HTU21D;63746;45.402;37.922;2022-12-11T00:58:14;11.10;72.46
75164;HTU21D;63746;45.402;37.922;2022-12-11T01:00:40;11.12;72.48
75164;HTU21D;63746;45.402;37.922;2022-12-11T01:03:06;11.13;72.46
75164;HTU21D;63746;45.402;37.922;2022-12-11T01:05:33;11.11;72.42
75164;HTU21D;63746;45.402;37.922;2022-12-11T01:08:00;11.12;72.38
75164;HTU21D;63746;45.402;37.922;2022-12-11T01:10:26;11.13;72.38
75164;HTU21D;63746;45.402;37.922;2022-12-11T01:13:02;11.13;72.35
75164;HTU21D;63746;45.402;37.922;2022-12-11T01:15:30;11.13;72.40
75164;HTU21D;63746;45.402;37.922;2022-12-11T01:17:57;11.15;72.42
75164;HTU21D;63746;45.402;37.922;2022-12-11T01:20:24;11.16;72.51
75164;HTU21D;63746;45.402;37.922;2022-12-11T01:22:56;11.18;72.51
75164;HTU21D;63746;45.402;37.922;2022-12-11T01:25:23;11.20;72.54
75164;HTU21D;63746;45.402;37.922;2022-12-11T01:27:50;11.25;72.54
75164;HTU21D;63746;45.402;37.922;2022-12-11T01:30:17;11.26;72.53
75164;HTU21D;63746;45.402;37.922;2022-12-11T01:32:43;11.28;72.51
75164;HTU21D;63746;45.402;37.922;2022-12-11T01:35:10;11.31;72.49
75164;HTU21D;63746;45.402;37.922;2022-12-11T01:37:36;11.32;72.46
75164;HTU21D;63746;45.402;37.922;2022-12-11T01:40:04;11.33;72.46
75164;HTU21D;63746;45.402;37.922;2022-12-11T01:42:30;11.37;72.44
75164;HTU21D;63746;45.402;37.922;2022-12-11T01:47:52;11.38;72.32
75164;HTU21D;63746;45.402;37.922;2022-12-11T01:50:20;11.37;72.31
75164;HTU21D;63746;45.402;37.922;2022-12-11T01:52:47;11.36;72.24
75164;HTU21D;63746;45.402;37.922;2022-12-11T01:55:14;11.33;72.23
75164;HTU21D;63746;45.402;37.922;2022-12-11T01:57:44;11.29;72.18
75164;HTU21D;63746;45.402;37.922;2022-12-11T02:00:12;11.27;72.22
75164;HTU21D;63746;45.402;37.922;2022-12-11T02:02:43;11.24;72.22
75164;HTU21D;63746;45.402;37.922;2022-12-11T02:05:09;11.22;72.25
75164;HTU21D;63746;45.402;37.922;2022-12-11T02:07:48;11.18;72.13
75164;HTU21D;63746;45.402;37.922;2022-12-11T02:10:16;11.15;72.22
75164;HTU21D;63746;45.402;37.922;2022-12-11T02:13:00;11.10;72.22
75164;HTU21D;63746;45.402;37.922;2022-12-11T02:15:37;11.03;72.09
75164;HTU21D;63746;45.402;37.922;2022-12-11T02:20:56;10.92;72.14
75164;HTU21D;63746;45.402;37.922;2022-12-11T02:29:53;10.72;72.14
75164;HTU21D;63746;45.402;37.922;2022-12-11T02:32:52;10.65;72.26
75164;HTU21D;63746;45.402;37.922;2022-12-11T02:35:36;10.60;72.41
75164;HTU21D;63746;45.402;37.922;2022-12-11T02:38:18;10.55;72.39
75164;HTU21D;63746;45.402;37.922;2022-12-11T02:40:47;10.51;72.59
75164;HTU21D;63746;45.402;37.922;2022-12-11T02:43:15;10.50;72.64
75164;HTU21D;63746;45.402;37.922;2022-12-11T02:45:43;10.48;72.65
75164;HTU21D;63746;45.402;37.922;2022-12-11T02:48:10;10.45;72.65
75164;HTU21D;63746;45.402;37.922;2022-12-11T02:50:41;10.42;72.67
75164;HTU21D;63746;45.402;37.922;2022-12-11T02:53:10;10.40;72.72
75164;HTU21D;63746;45.402;37.922;2022-12-11T02:55:39;10.39;72.75
75164;HTU21D;63746;45.402;37.922;2022-12-11T02:58:17;10.39;72.77
75164;HTU21D;63746;45.402;37.922;2022-12-11T03:00:45;10.37;72.79
75164;HTU21D;63746;45.402;37.922;2022-12-11T03:03:12;10.37;72.80
75164;HTU21D;63746;45.402;37.922;2022-12-11T03:05:38;10.36;72.79
75164;HTU21D;63746;45.402;37.922;2022-12-11T03:08:05;10.36;72.79
75164;HTU21D;63746;45.402;37.922;2022-12-11T03:10:31;10.34;72.82
75164;HTU21D;63746;45.402;37.922;2022-12-11T03:12:58;10.35;72.86
75164;HTU21D;63746;45.402;37.922;2022-12-11T03:15:33;10.36;72.90
75164;HTU21D;63746;45.402;37.922;2022-12-11T03:18:33;10.37;72.81
75164;HTU21D;63746;45.402;37.922;2022-12-11T03:21:08;10.37;72.89
75164;HTU21D;63746;45.402;37.922;2022-12-11T03:26:19;10.39;72.90
75164;HTU21D;63746;45.402;37.922;2022-12-11T03:28:58;10.40;72.88
75164;HTU21D;63746;45.402;37.922;2022-12-11T03:31:41;10.42;72.85
75164;HTU21D;63746;45.402;37.922;2022-12-11T03:34:21;10.44;72.88
75164;HTU21D;63746;45.402;37.922;2022-12-11T03:36:50;10.48;72.88
75164;HTU21D;63746;45.402;37.922;2022-12-11T03:39:26;10.49;72.88
75164;HTU21D;63746;45.402;37.922;2022-12-11T03:41:54;10.50;72.88
75164;HTU21D;63746;45.402;37.922;2022-12-11T03:44:22;10.52;72.85
75164;HTU21D;63746;45.402;37.922;2022-12-11T03:46:49;10.55;72.85
75164;HTU21D;63746;45.402;37.922;2022-12-11T03:49:20;10.56;72.80
75164;HTU21D;63746;45.402;37.922;2022-12-11T03:51:49;10.57;72.76
75164;HTU21D;63746;45.402;37.922;2022-12-11T03:54:16;10.58;72.74
75164;HTU21D;63746;45.402;37.922;2022-12-11T03:56:44;10.60;72.70
75164;HTU21D;63746;45.402;37.922;2022-12-11T03:59:11;10.60;72.64
75164;HTU21D;63746;45.402;37.922;2022-12-11T04:01:37;10.58;72.64
75164;HTU21D;63746;45.402;37.922;2022-12-11T04:04:03;10.59;72.62
75164;HTU21D;63746;45.402;37.922;2022-12-11T04:06:29;10.56;72.59
75164;HTU21D;63746;45.402;37.922;2022-12-11T04:08:55;10.54;72.61
75164;HTU21D;63746;45.402;37.922;2022-12-11T04:11:21;10.52;72.63
75164;HTU21D;63746;45.402;37.922;2022-12-11T04:14:00;10.50;72.66
75164;HTU21D;63746;45.402;37.922;2022-12-11T04:16:45;10.50;72.70
75164;HTU21D;63746;45.402;37.922;2022-12-11T04:19:11;10.49;72.77
75164;HTU21D;63746;45.402;37.922;2022-12-11T04:21:55;10.49;72.80
75164;HTU21D;63746;45.402;37.922;2022-12-11T04:24:40;10.49;72.80
75164;HTU21D;63746;45.402;37.922;2022-12-11T04:27:06;10.49;72.78
75164;HTU21D;63746;45.402;37.922;2022-12-11T04:29:31;10.46;72.76
75164;HTU21D;63746;45.402;37.922;2022-12-11T04:31:57;10.46;72.77
75164;HTU21D;63746;45.402;37.922;2022-12-11T04:34:23;10.48;72.79
75164;HTU21D;63746;45.402;37.922;2022-12-11T04:36:49;10.46;72.81
75164;HTU21D;63746;45.402;37.922;2022-12-11T04:39:15;10.48;72.82
75164;HTU21D;63746;45.402;37.922;2022-12-11T04:41:41;10.49;72.79
75164;HTU21D;63746;45.402;37.922;2022-12-11T04:44:08;10.48;72.77
75164;HTU21D;63746;45.402;37.922;2022-12-11T04:46:34;10.45;72.75
75164;HTU21D;63746;45.402;37.922;2022-12-11T04:49:00;10.45;72.74
75164;HTU21D;63746;45.402;37.922;2022-12-11T04:51:27;10.44;72.76
75164;HTU21D;63746;45.402;37.922;2022-12-11T04:53:53;10.43;72.77
75164;HTU21D;63746;45.402;37.922;2022-12-11T04:56:19;10.41;72.79
75164;HTU21D;63746;45.402;37.922;2022-12-11T04:58:46;10.40;72.79
75164;HTU21D;63746;45.402;37.922;2022-12-11T05:01:21;10.38;72.80
75164;HTU21D;63746;45.402;37.922;2022-12-11T05:03:47;10.38;72.85
75164;HTU21D;63746;45.402;37.922;2022-12-11T05:06:13;10.37;72.81
75164;HTU21D;63746;45.402;37.922;2022-12-11T05:08:41;10.36;72.82
75164;HTU21D;63746;45.402;37.922;2022-12-11T05:11:09;10.34;72.84
75164;HTU21D;63746;45.402;37.922;2022-12-11T05:13:36;10.34;72.87
75164;HTU21D;63746;45.402;37.922;2022-12-11T05:16:04;10.31;72.89
75164;HTU21D;63746;45.402;37.922;2022-12-11T05:18:30;10.31;72.90
75164;HTU21D;63746;45.402;37.922;2022-12-11T05:21:02;10.30;72.92
75164;HTU21D;63746;45.402;37.922;2022-12-11T05:23:29;10.30;72.94
75164;HTU21D;63746;45.402;37.922;2022-12-11T05:26:00;10.29;72.90
75164;HTU21D;63746;45.402;37.922;2022-12-11T05:28:29;10.28;72.91
75164;HTU21D;63746;45.402;37.922;2022-12-11T05:30:57;10.26;72.91
75164;HTU21D;63746;45.402;37.922;2022-12-11T05:33:23;10.27;72.93
75164;HTU21D;63746;45.402;37.922;2022-12-11T05:35:50;10.27;72.91
75164;HTU21D;63746;45.402;37.922;2022-12-11T05:38:16;10.26;72.88
75164;HTU21D;63746;45.402;37.922;2022-12-11T05:40:42;10.25;72.89
75164;HTU21D;63746;45.402;37.922;2022-12-11T05:43:08;10.24;72.90
75164;HTU21D;63746;45.402;37.922;2022-12-11T05:45:34;10.23;72.92
75164;HTU21D;63746;45.402;37.922;2022-12-11T05:48:00;10.23;72.90
75164;HTU21D;63746;45.402;37.922;2022-12-11T05:50:26;10.22;72.89
75164;HTU21D;63746;45.402;37.922;2022-12-11T05:52:52;10.21;72.90
75164;HTU21D;63746;45.402;37.922;2022-12-11T05:55:18;10.18;72.90
75164;HTU21D;63746;45.402;37.922;2022-12-11T05:57:43;10.16;72.93
75164;HTU21D;63746;45.402;37.922;2022-12-11T06:00:11;10.16;72.93
75164;HTU21D;63746;45.402;37.922;2022-12-11T06:02:37;10.15;72.97
75164;HTU21D;63746;45.402;37.922;2022-12-11T06:05:04;10.15;72.99
75164;HTU21D;63746;45.402;37.922;2022-12-11T06:07:29;10.16;73.03
75164;HTU21D;63746;45.402;37.922;2022-12-11T06:09:55;10.19;73.05
75164;HTU21D;63746;45.402;37.922;2022-12-11T06:12:21;10.21;73.12
75164;HTU21D;63746;45.402;37.922;2022-12-11T06:14:47;10.24;73.15
75164;HTU21D;63746;45.402;37.922;2022-12-11T06:17:13;10.26;73.15
75164;HTU21D;63746;45.402;37.922;2022-12-11T06:19:39;10.31;73.19
75164;HTU21D;63746;45.402;37.922;2022-12-11T06:22:05;10.36;73.22
75164;HTU21D;63746;45.402;37.922;2022-12-11T06:24:31;10.43;73.29
75164;HTU21D;63746;45.402;37.922;2022-12-11T06:26:56;10.50;73.28
75164;HTU21D;63746;45.402;37.922;2022-12-11T06:29:22;10.57;73.29
75164;HTU21D;63746;45.402;37.922;2022-12-11T06:31:48;10.65;73.25
75164;HTU21D;63746;45.402;37.922;2022-12-11T06:34:14;10.72;73.20
75164;HTU21D;63746;45.402;37.922;2022-12-11T06:36:40;10.79;73.17
75164;HTU21D;63746;45.402;37.922;2022-12-11T06:39:06;10.85;73.17
75164;HTU21D;63746;45.402;37.922;2022-12-11T06:41:32;10.95;73.11
75164;HTU21D;63746;45.402;37.922;2022-12-11T06:43:58;11.02;73.06
75164;HTU21D;63746;45.402;37.922;2022-12-11T06:46:24;11.10;73.03
75164;HTU21D;63746;45.402;37.922;2022-12-11T06:48:50;11.17;73.04
75164;HTU21D;63746;45.402;37.922;2022-12-11T06:51:19;11.27;73.02
75164;HTU21D;63746;45.402;37.922;2022-12-11T06:53:50;11.36;72.96
75164;HTU21D;63746;45.402;37.922;2022-12-11T06:56:16;11.44;72.93
75164;HTU21D;63746;45.402;37.922;2022-12-11T06:58:42;11.53;72.92
75164;HTU21D;63746;45.402;37.922;2022-12-11T07:01:23;11.62;72.73
75164;HTU21D;63746;45.402;37.922;2022-12-11T07:03:54;11.73;72.80
75164;HTU21D;63746;45.402;37.922;2022-12-11T07:06:20;11.82;72.72
75164;HTU21D;63746;45.402;37.922;2022-12-11T07:08:46;11.93;72.78
75164;HTU21D;63746;45.402;37.922;2022-12-11T07:11:14;12.04;72.76
75164;HTU21D;63746;45.402;37.922;2022-12-11T07:13:41;12.14;72.59
75164;HTU21D;63746;45.402;37.922;2022-12-11T07:16:07;12.23;72.49
75164;HTU21D;63746;45.402;37.922;2022-12-11T07:18:39;12.32;72.41
75164;HTU21D;63746;45.402;37.922;2022-12-11T07:21:06;12.42;72.38
75164;HTU21D;63746;45.402;37.922;2022-12-11T07:23:34;12.50;72.34
75164;HTU21D;63746;45.402;37.922;2022-12-11T07:26:04;12.59;72.25
75164;HTU21D;63746;45.402;37.922;2022-12-11T07:28:31;12.67;72.25
75164;HTU21D;63746;45.402;37.922;2022-12-11T07:30:56;12.78;72.23
75164;HTU21D;63746;45.402;37.922;2022-12-11T07:33:22;12.87;72.25
75164;HTU21D;63746;45.402;37.922;2022-12-11T07:35:48;12.96;72.24
75164;HTU21D;63746;45.402;37.922;2022-12-11T07:38:14;13.08;72.22
75164;HTU21D;63746;45.402;37.922;2022-12-11T07:40:40;13.19;72.16
75164;HTU21D;63746;45.402;37.922;2022-12-11T07:43:06;13.31;72.09
75164;HTU21D;63746;45.402;37.922;2022-12-11T07:45:32;13.41;72.05
75164;HTU21D;63746;45.402;37.922;2022-12-11T07:47:58;13.54;72.09
75164;HTU21D;63746;45.402;37.922;2022-12-11T07:50:24;13.67;71.94
75164;HTU21D;63746;45.402;37.922;2022-12-11T07:52:49;13.77;71.86
75164;HTU21D;63746;45.402;37.922;2022-12-11T07:55:15;13.90;71.87
75164;HTU21D;63746;45.402;37.922;2022-12-11T07:57:41;14.01;71.74
75164;HTU21D;63746;45.402;37.922;2022-12-11T08:00:08;14.13;71.66
75164;HTU21D;63746;45.402;37.922;2022-12-11T08:02:38;14.26;71.58
75164;HTU21D;63746;45.402;37.922;2022-12-11T08:05:04;14.38;71.55
75164;HTU21D;63746;45.402;37.922;2022-12-11T08:07:33;14.49;71.34
75164;HTU21D;63746;45.402;37.922;2022-12-11T08:10:00;14.59;71.41
75164;HTU21D;63746;45.402;37.922;2022-12-11T08:12:26;14.72;71.38
75164;HTU21D;63746;45.402;37.922;2022-12-11T08:14:52;14.86;71.27
75164;HTU21D;63746;45.402;37.922;2022-12-11T08:17:17;14.96;71.12
75164;HTU21D;63746;45.402;37.922;2022-12-11T08:19:43;15.06;71.08
75164;HTU21D;63746;45.402;37.922;2022-12-11T08:22:09;15.17;71.03
75164;HTU21D;63746;45.402;37.922;2022-12-11T08:24:35;15.28;70.97
75164;HTU21D;63746;45.402;37.922;2022-12-11T08:27:01;15.40;70.90
75164;HTU21D;63746;45.402;37.922;2022-12-11T08:29:27;15.52;70.78
75164;HTU21D;63746;45.402;37.922;2022-12-11T08:31:53;15.62;70.70
75164;HTU21D;63746;45.402;37.922;2022-12-11T08:34:19;15.72;70.65
75164;HTU21D;63746;45.402;37.922;2022-12-11T08:36:45;15.84;70.61
75164;HTU21D;63746;45.402;37.922;2022-12-11T08:39:11;15.95;70.53
75164;HTU21D;63746;45.402;37.922;2022-12-11T08:41:37;16.05;70.46
75164;HTU21D;63746;45.402;37.922;2022-12-11T08:44:03;16.16;70.31
75164;HTU21D;63746;45.402;37.922;2022-12-11T08:46:30;16.22;70.18
75164;HTU21D;63746;45.402;37.922;2022-12-11T08:48:58;16.28;70.14
75164;HTU21D;63746;45.402;37.922;2022-12-11T08:51:26;16.34;70.13
75164;HTU21D;63746;45.402;37.922;2022-12-11T08:53:56;16.42;70.00
75164;HTU21D;63746;45.402;37.922;2022-12-11T08:56:23;16.48;70.08
75164;HTU21D;63746;45.402;37.922;2022-12-11T08:58:49;16.54;70.07
75164;HTU21D;63746;45.402;37.922;2022-12-11T09:01:18;16.60;70.01
75164;HTU21D;63746;45.402;37.922;2022-12-11T09:03:47;16.67;69.94
75164;HTU21D;63746;45.402;37.922;2022-12-11T09:06:16;16.74;69.94
75164;HTU21D;63746;45.402;37.922;2022-12-11T09:08:44;16.78;69.86
75164;HTU21D;63746;45.402;37.922;2022-12-11T09:11:13;16.82;69.76
75164;HTU21D;63746;45.402;37.922;2022-12-11T09:13:40;16.85;69.74
75164;HTU21D;63746;45.402;37.922;2022-12-11T09:16:09;16.84;69.68
75164;HTU21D;63746;45.402;37.922;2022-12-11T09:18:35;16.86;67.71
75164;HTU21D;63746;45.402;37.922;2022-12-11T09:21:04;16.89;69.68
75164;HTU21D;63746;45.402;37.922;2022-12-11T09:23:30;16.90;67.53
75164;HTU21D;63746;45.402;37.922;2022-12-11T09:25:56;16.91;69.77
75164;HTU21D;63746;45.402;37.922;2022-12-11T09:28:22;16.95;69.93
75164;HTU21D;63746;45.402;37.922;2022-12-11T09:30:49;17.05;70.04
75164;HTU21D;63746;45.402;37.922;2022-12-11T09:33:15;17.16;70.01
75164;HTU21D;63746;45.402;37.922;2022-12-11T09:35:41;17.31;70.00
75164;HTU21D;63746;45.402;37.922;2022-12-11T09:38:07;17.45;69.81
75164;HTU21D;63746;45.402;37.922;2022-12-11T09:40:39;17.58;69.46
75164;HTU21D;63746;45.402;37.922;2022-12-11T09:43:14;17.72;69.40
75164;HTU21D;63746;45.402;37.922;2022-12-11T09:45:43;17.84;69.37
75164;HTU21D;63746;45.402;37.922;2022-12-11T09:48:09;17.92;69.19
75164;HTU21D;63746;45.402;37.922;2022-12-11T09:50:36;17.99;69.14
75164;HTU21D;63746;45.402;37.922;2022-12-11T09:53:18;18.05;68.91
75164;HTU21D;63746;45.402;37.922;2022-12-11T09:55:55;18.13;68.36
75164;HTU21D;63746;45.402;37.922;2022-12-11T10:01:21;18.27;67.49
75164;HTU21D;63746;45.402;37.922;2022-12-11T10:07:10;18.43;67.30
75164;HTU21D;63746;45.402;37.922;2022-12-11T10:10:01;18.48;68.29
75164;HTU21D;63746;45.402;37.922;2022-12-11T10:13:01;18.56;67.01
75164;HTU21D;63746;45.402;37.922;2022-12-11T10:15:42;18.61;68.04
75164;HTU21D;63746;45.402;37.922;2022-12-11T10:18:17;18.67;67.96
75164;HTU21D;63746;45.402;37.922;2022-12-11T10:20:44;18.71;68.55
75164;HTU21D;63746;45.402;37.922;2022-12-11T10:23:20;18.74;67.79
75164;HTU21D;63746;45.402;37.922;2022-12-11T10:26:16;18.79;66.59
75164;HTU21D;63746;45.402;37.922;2022-12-11T10:28:43;18.80;68.39
75164;HTU21D;63746;45.402;37.922;2022-12-11T10:31:12;18.83;68.40
75164;HTU21D;63746;45.402;37.922;2022-12-11T10:36:22;18.89;68.30
75164;HTU21D;63746;45.402;37.922;2022-12-11T10:38:49;18.94;68.33
75164;HTU21D;63746;45.402;37.922;2022-12-11T10:41:21;18.98;67.82
75164;HTU21D;63746;45.402;37.922;2022-12-11T10:43:51;19.00;68.04
75164;HTU21D;63746;45.402;37.922;2022-12-11T10:51:36;19.00;67.84
75164;HTU21D;63746;45.402;37.922;2022-12-11T10:54:05;18.98;67.74
75164;HTU21D;63746;45.402;37.922;2022-12-11T10:56:34;18.96;67.80
75164;HTU21D;63746;45.402;37.922;2022-12-11T10:59:02;18.94;67.91
75164;HTU21D;63746;45.402;37.922;2022-12-11T11:01:30;18.91;67.84
75164;HTU21D;63746;45.402;37.922;2022-12-11T11:06:25;18.83;67.95
75164;HTU21D;63746;45.402;37.922;2022-12-11T11:08:54;18.77;67.97
75164;HTU21D;63746;45.402;37.922;2022-12-11T11:11:31;18.71;63.94
75164;HTU21D;63746;45.402;37.922;2022-12-11T11:14:19;18.61;65.60
75164;HTU21D;63746;45.402;37.922;2022-12-11T11:16:50;18.50;67.33
75164;HTU21D;63746;45.402;37.922;2022-12-11T11:21:57;18.33;67.95
75164;HTU21D;63746;45.402;37.922;2022-12-11T11:24:32;18.23;67.73
75164;HTU21D;63746;45.402;37.922;2022-12-11T11:26:59;18.18;68.25
75164;HTU21D;63746;45.402;37.922;2022-12-11T11:29:31;18.10;67.83
75164;HTU21D;63746;45.402;37.922;2022-12-11T11:32:18;18.00;67.01
75164;HTU21D;63746;45.402;37.922;2022-12-11T11:34:44;17.93;68.35
75164;HTU21D;63746;45.402;37.922;2022-12-11T11:37:32;17.83;67.39
75164;HTU21D;63746;45.402;37.922;2022-12-11T11:40:05;17.77;68.37
75164;HTU21D;63746;45.402;37.922;2022-12-11T11:45:23;17.65;68.27
75164;HTU21D;63746;45.402;37.922;2022-12-11T11:48:30;17.60;67.30
75164;HTU21D;63746;45.402;37.922;2022-12-11T11:51:06;17.51;68.42
75164;HTU21D;63746;45.402;37.922;2022-12-11T11:53:33;17.46;68.70
75164;HTU21D;63746;45.402;37.922;2022-12-11T11:56:16;17.41;68.23
75164;HTU21D;63746;45.402;37.922;2022-12-11T11:59:33;17.36;68.62
75164;HTU21D;63746;45.402;37.922;2022-12-11T12:01:33;17.31;68.78
75164;HTU21D;63746;45.402;37.922;2022-12-11T12:04:02;17.28;68.80
75164;HTU21D;63746;45.402;37.922;2022-12-11T12:07:19;17.23;65.95
75164;HTU21D;63746;45.402;37.922;2022-12-11T12:20:21;17.02;68.68
75164;HTU21D;63746;45.402;37.922;2022-12-11T12:26:00;16.96;68.02
75164;HTU21D;63746;45.402;37.922;2022-12-11T12:28:35;16.92;68.94
75164;HTU21D;63746;45.402;37.922;2022-12-11T12:36:48;16.81;67.99
75164;HTU21D;63746;45.402;37.922;2022-12-11T12:42:06;16.75;68.99
75164;HTU21D;63746;45.402;37.922;2022-12-11T12:44:57;16.71;67.88
75164;HTU21D;63746;45.402;37.922;2022-12-11T12:47:26;16.66;68.88
75164;HTU21D;63746;45.402;37.922;2022-12-11T12:49:53;16.64;68.95
75164;HTU21D;63746;45.402;37.922;2022-12-11T12:52:31;16.61;68.43
75164;HTU21D;63746;45.402;37.922;2022-12-11T12:55:44;16.57;68.76
75164;HTU21D;63746;45.402;37.922;2022-12-11T12:57:54;16.54;68.64
75164;HTU21D;63746;45.402;37.922;2022-12-11T13:00:35;16.49;68.24
75164;HTU21D;63746;45.402;37.922;2022-12-11T13:05:41;16.41;68.83
75164;HTU21D;63746;45.402;37.922;2022-12-11T13:08:08;16.36;68.97
75164;HTU21D;63746;45.402;37.922;2022-12-11T13:10:37;16.33;68.84
75164;HTU21D;63746;45.402;37.922;2022-12-11T13:13:05;16.28;68.87
75164;HTU21D;63746;45.402;37.922;2022-12-11T13:15:49;16.22;68.84
75164;HTU21D;63746;45.402;37.922;2022-12-11T13:18:36;16.15;67.93
75164;HTU21D;63746;45.402;37.922;2022-12-11T13:23:47;16.01;68.87
75164;HTU21D;63746;45.402;37.922;2022-12-11T13:26:29;15.92;68.18
75164;HTU21D;63746;45.402;37.922;2022-12-11T13:28:56;15.84;68.90
75164;HTU21D;63746;45.402;37.922;2022-12-11T13:31:34;15.74;68.26
75164;HTU21D;63746;45.402;37.922;2022-12-11T13:34:19;15.63;68.15
75164;HTU21D;63746;45.402;37.922;2022-12-11T13:36:50;15.54;68.88
75164;HTU21D;63746;45.402;37.922;2022-12-11T13:42:02;15.38;69.14
75164;HTU21D;63746;45.402;37.922;2022-12-11T13:44:40;15.28;69.03
75164;HTU21D;63746;45.402;37.922;2022-12-11T13:47:12;15.23;69.18
75164;HTU21D;63746;45.402;37.922;2022-12-11T13:49:42;15.17;69.33
75164;HTU21D;63746;45.402;37.922;2022-12-11T13:52:21;15.10;69.07
75164;HTU21D;63746;45.402;37.922;2022-12-11T13:54:52;15.04;69.28
75164;HTU21D;63746;45.402;37.922;2022-12-11T13:57:23;14.97;69.30
75164;HTU21D;63746;45.402;37.922;2022-12-11T13:59:58;14.92;69.44
75164;HTU21D;63746;45.402;37.922;2022-12-11T14:02:36;14.86;69.19
75164;HTU21D;63746;45.402;37.922;2022-12-11T14:05:08;14.80;69.36
75164;HTU21D;63746;45.402;37.922;2022-12-11T14:07:39;14.72;69.46
75164;HTU21D;63746;45.402;37.922;2022-12-11T14:13:02;14.60;69.36
75164;HTU21D;63746;45.402;37.922;2022-12-11T14:15:30;14.51;69.48
75164;HTU21D;63746;45.402;37.922;2022-12-11T14:17:58;14.44;69.59
75164;HTU21D;63746;45.402;37.922;2022-12-11T14:20:27;14.41;69.63
75164;HTU21D;63746;45.402;37.922;2022-12-11T14:23:16;14.33;69.21
75164;HTU21D;63746;45.402;37.922;2022-12-11T14:25:54;14.28;69.45
75164;HTU21D;63746;45.402;37.922;2022-12-11T14:28:22;14.22;69.58
75164;HTU21D;63746;45.402;37.922;2022-12-11T14:30:54;14.15;69.58
75164;HTU21D;63746;45.402;37.922;2022-12-11T14:33:22;14.05;69.62
75164;HTU21D;63746;45.402;37.922;2022-12-11T14:35:49;13.98;69.68
75164;HTU21D;63746;45.402;37.922;2022-12-11T14:38:24;13.90;69.72
75164;HTU21D;63746;45.402;37.922;2022-12-11T14:40:55;13.82;69.74
75164;HTU21D;63746;45.402;37.922;2022-12-11T14:43:34;13.76;69.64
75164;HTU21D;63746;45.402;37.922;2022-12-11T14:46:05;13.69;69.83
75164;HTU21D;63746;45.402;37.922;2022-12-11T14:48:41;13.64;69.81
75164;HTU21D;63746;45.402;37.922;2022-12-11T14:51:15;13.58;69.82
75164;HTU21D;63746;45.402;37.922;2022-12-11T14:53:46;13.51;69.97
75164;HTU21D;63746;45.402;37.922;2022-12-11T14:56:19;13.46;70.03
75164;HTU21D;63746;45.402;37.922;2022-12-11T14:58:58;13.39;69.70
75164;HTU21D;63746;45.402;37.922;2022-12-11T15:01:31;13.34;70.06
75164;HTU21D;63746;45.402;37.922;2022-12-11T15:04:21;13.29;69.69
75164;HTU21D;63746;45.402;37.922;2022-12-11T15:06:50;13.24;70.16
75164;HTU21D;63746;45.402;37.922;2022-12-11T15:09:35;13.19;70.11
75164;HTU21D;63746;45.402;37.922;2022-12-11T15:12:16;13.15;69.82
75164;HTU21D;63746;45.402;37.922;2022-12-11T15:14:54;13.08;69.99
75164;HTU21D;63746;45.402;37.922;2022-12-11T15:17:23;13.03;70.16
75164;HTU21D;63746;45.402;37.922;2022-12-11T15:19:52;12.97;70.20
75164;HTU21D;63746;45.402;37.922;2022-12-11T15:22:21;12.94;70.28
75164;HTU21D;63746;45.402;37.922;2022-12-11T15:24:51;12.91;70.27
75164;HTU21D;63746;45.402;37.922;2022-12-11T15:29:51;12.84;70.32
75164;HTU21D;63746;45.402;37.922;2022-12-11T15:32:19;12.84;70.36
75164;HTU21D;63746;45.402;37.922;2022-12-11T15:37:30;12.80;70.35
75164;HTU21D;63746;45.402;37.922;2022-12-11T15:39:58;12.77;70.30
75164;HTU21D;63746;45.402;37.922;2022-12-11T15:42:29;12.74;70.27
75164;HTU21D;63746;45.402;37.922;2022-12-11T15:44:56;12.70;70.31
75164;HTU21D;63746;45.402;37.922;2022-12-11T15:47:25;12.67;70.30
75164;HTU21D;63746;45.402;37.922;2022-12-11T15:49:58;12.64;70.22
75164;HTU21D;63746;45.402;37.922;2022-12-11T15:52:24;12.62;70.32
75164;HTU21D;63746;45.402;37.922;2022-12-11T15:54:50;12.59;70.27
75164;HTU21D;63746;45.402;37.922;2022-12-11T15:57:20;12.55;70.26
75164;HTU21D;63746;45.402;37.922;2022-12-11T15:59:48;12.50;70.29
75164;HTU21D;63746;45.402;37.922;2022-12-11T16:02:15;12.48;70.31
75164;HTU21D;63746;45.402;37.922;2022-12-11T16:04:42;12.43;70.32
75164;HTU21D;63746;45.402;37.922;2022-12-11T16:07:20;12.38;70.25
75164;HTU21D;63746;45.402;37.922;2022-12-11T16:09:46;12.36;70.34
75164;HTU21D;63746;45.402;37.922;2022-12-11T16:12:13;12.33;70.36
75164;HTU21D;63746;45.402;37.922;2022-12-11T16:14:40;12.31;70.35
75164;HTU21D;63746;45.402;37.922;2022-12-11T16:17:07;12.28;70.36
75164;HTU21D;63746;45.402;37.922;2022-12-11T16:19:34;12.25;70.33
75164;HTU21D;63746;45.402;37.922;2022-12-11T16:22:00;12.21;70.36
75164;HTU21D;63746;45.402;37.922;2022-12-11T16:24:27;12.18;70.41
75164;HTU21D;63746;45.402;37.922;2022-12-11T16:26:53;12.16;70.43
75164;HTU21D;63746;45.402;37.922;2022-12-11T16:29:19;12.13;70.39
75164;HTU21D;63746;45.402;37.922;2022-12-11T16:31:45;12.11;70.42
75164;HTU21D;63746;45.402;37.922;2022-12-11T16:34:10;12.07;70.44
75164;HTU21D;63746;45.402;37.922;2022-12-11T16:36:36;12.05;70.47